Terminal Aerodrome Forecast
Issued by NWS

Home | Current Version | Previous Version | Graphics & Text | Print | Product List | Glossary On
Versions: 1 2 3 4 5 6 7 8 9 10 11 12 13 14 15 16 17 18 19 20 21 22 23
827
FTUS43 KGRB 250425 AAA
TAFMTW
TAF AMD
KMTW 250425Z 2504/2524 33012G20KT 4SM -FZDZ BR OVC007
      TEMPO 2504/2508 2SM -FZDZSN BR
     FM250800 35016G25KT 2SM -SN BR OVC012
     FM251200 32017G25KT P6SM -SN SCT015 OVC025
      TEMPO 2512/2516 3SM -SN BKN015
     FM251600 30018G28KT P6SM SCT015 OVC035=

USA.gov is the U.S. government's official web portal to all federal, state and local government web resources and services.